createdAt,value
2023-03-07T00:03:02.923Z,97686.13
2023-03-07T00:08:06.709Z,97682.50
2023-03-07T00:13:10.404Z,97679.94
2023-03-07T00:18:15.219Z,97671.75
2023-03-07T00:23:18.405Z,97672.59
2023-03-07T00:28:21.756Z,97681.59
2023-03-07T00:33:26.634Z,97683.84
2023-03-07T00:38:30.988Z,97683.31
2023-03-07T00:43:35.630Z,97676.13
2023-03-07T00:48:41.422Z,97671.88
2023-03-07T00:53:45.583Z,97676.53
2023-03-07T00:58:49.805Z,97679.63
2023-03-07T01:03:56.158Z,97670.38
2023-03-07T01:09:01.888Z,97675.91
2023-03-07T01:14:07.481Z,97637.19
2023-03-07T01:19:14.212Z,97675.84
2023-03-07T01:24:18.503Z,97680.81
2023-03-07T01:29:22.039Z,97680.44
2023-03-07T01:34:26.794Z,97680.47
2023-03-07T01:39:30.424Z,97681.63
2023-03-07T01:44:59.606Z,97679.50
2023-03-07T01:50:09.347Z,97686.78
2023-03-07T01:55:16.692Z,97649.09
2023-03-07T02:00:26.554Z,97676.25
2023-03-07T02:05:35.791Z,97673.06
2023-03-07T02:10:40.340Z,97673.47
2023-03-07T02:15:44.261Z,97671.97
2023-03-07T02:20:59.042Z,97673.25
2023-03-07T02:26:09.121Z,97670.78
2023-03-07T02:31:14.062Z,97669.78
2023-03-07T02:36:21.361Z,97668.06
2023-03-07T02:41:29.647Z,97656.56
2023-03-07T02:46:34.658Z,97664.88
2023-03-07T02:51:38.063Z,97664.06
2023-03-07T02:56:41.555Z,97668.19
2023-03-07T03:01:46.593Z,97654.16
2023-03-07T03:06:50.095Z,97666.25
2023-03-07T03:11:53.451Z,97675.09
2023-03-07T03:16:58.520Z,97672.78
2023-03-07T03:22:02.285Z,97665.00
2023-03-07T03:27:06.185Z,97664.19
2023-03-07T03:32:11.470Z,97664.31
2023-03-07T03:37:15.033Z,97670.72
2023-03-07T03:42:18.516Z,97681.38
2023-03-07T03:47:23.297Z,97682.97
2023-03-07T03:52:26.392Z,97681.22
2023-03-07T03:57:29.705Z,97678.22
2023-03-07T04:02:34.750Z,97679.19
2023-03-07T04:07:38.409Z,97667.75
2023-03-07T04:12:42.049Z,97687.38
2023-03-07T04:17:46.783Z,97682.06
2023-03-07T04:22:50.435Z,97689.19
2023-03-07T04:27:53.739Z,97686.47
2023-03-07T04:32:58.751Z,97688.09
2023-03-07T04:38:02.075Z,97690.53
2023-03-07T04:43:06.257Z,97698.41
2023-03-07T04:48:11.128Z,97693.31
2023-03-07T04:53:14.214Z,97708.09
2023-03-07T04:58:18.005Z,97705.66
2023-03-07T05:03:25.090Z,97704.47
2023-03-07T05:08:28.693Z,97720.59
2023-03-07T05:13:32.492Z,97715.88
2023-03-07T05:18:37.497Z,97723.56
2023-03-07T05:23:41.077Z,97731.06
2023-03-07T05:28:44.443Z,97727.97
2023-03-07T05:33:49.220Z,97730.13
2023-03-07T05:38:54.191Z,97729.44
2023-03-07T05:43:58.423Z,97734.19
2023-03-07T05:49:03.160Z,97743.75
2023-03-07T05:54:06.567Z,97750.78
2023-03-07T05:59:13.024Z,97750.75
2023-03-07T06:04:18.043Z,97760.28
2023-03-07T06:09:22.460Z,97763.81
2023-03-07T06:14:25.923Z,97763.16
2023-03-07T06:19:31.272Z,97770.00
2023-03-07T06:24:34.902Z,97767.19
2023-03-07T06:29:38.520Z,97769.03
2023-03-07T06:34:43.777Z,97772.13
2023-03-07T06:39:47.246Z,97776.31
2023-03-07T06:44:50.681Z,97785.56
2023-03-07T06:49:55.899Z,97785.41
2023-03-07T06:54:59.308Z,97780.63
2023-03-07T07:00:02.933Z,97782.97
2023-03-07T07:05:09.962Z,97768.09
2023-03-07T07:10:13.888Z,97775.00
2023-03-07T07:15:17.528Z,97766.66
2023-03-07T07:20:22.622Z,97769.41
2023-03-07T07:25:26.119Z,97777.25
2023-03-07T07:30:29.593Z,97775.66
2023-03-07T07:35:34.445Z,97777.47
2023-03-07T07:40:38.058Z,97785.19
2023-03-07T07:45:41.544Z,97776.59
2023-03-07T07:50:47.332Z,97783.81
2023-03-07T07:55:50.822Z,97789.34
2023-03-07T08:00:54.320Z,97783.50
2023-03-07T08:05:59.332Z,97774.41
2023-03-07T08:11:02.885Z,97777.91
2023-03-07T08:16:11.278Z,97767.78
2023-03-07T08:21:16.238Z,97774.84
2023-03-07T08:26:19.688Z,97767.84
2023-03-07T08:31:25.361Z,97758.72
2023-03-07T08:36:30.263Z,97765.22
2023-03-07T08:41:33.904Z,97769.38
2023-03-07T08:46:37.456Z,97769.47
2023-03-07T08:51:42.505Z,97754.72
2023-03-07T08:56:48.773Z,97765.44
2023-03-07T09:01:52.295Z,97763.06
2023-03-07T09:07:00.646Z,97763.38
2023-03-07T09:12:05.649Z,97758.72
2023-03-07T09:17:09.662Z,97775.56
2023-03-07T09:22:14.697Z,97775.00
2023-03-07T09:27:17.760Z,97765.69
2023-03-07T09:32:21.230Z,97758.88
2023-03-07T09:37:26.022Z,97769.94
2023-03-07T09:42:38.106Z,97764.50
2023-03-07T09:48:00.439Z,97761.97
2023-03-07T09:53:06.771Z,97766.88
2023-03-07T09:58:19.932Z,97766.94
2023-03-07T10:03:32.739Z,97748.09
2023-03-07T10:08:38.738Z,97749.09
2023-03-07T10:13:55.586Z,97757.28
2023-03-07T10:19:11.440Z,97754.81
2023-03-07T10:24:33.838Z,97749.00
2023-03-07T10:29:46.170Z,97741.13
2023-03-07T10:34:56.128Z,97726.28
2023-03-07T10:40:04.817Z,97733.66
2023-03-07T10:45:13.271Z,97728.47
2023-03-07T10:50:33.432Z,97729.59
2023-03-07T10:55:43.582Z,97732.63
2023-03-07T11:00:58.804Z,97722.94
2023-03-07T11:06:02.327Z,97719.81
2023-03-07T11:11:07.181Z,97709.03
2023-03-07T11:16:20.280Z,97711.72
2023-03-07T11:21:30.820Z,97709.66
2023-03-07T11:26:41.302Z,97710.94
2023-03-07T11:31:54.095Z,97711.53
2023-03-07T11:37:03.383Z,97708.94
2023-03-07T11:42:17.108Z,97707.56
2023-03-07T11:47:33.382Z,97715.47
2023-03-07T11:53:04.973Z,97720.78
2023-03-07T11:58:34.241Z,97711.94
2023-03-07T12:04:01.341Z,97717.22
2023-03-07T12:09:30.219Z,97725.25
2023-03-07T12:14:43.819Z,97720.19
2023-03-07T12:20:20.257Z,97720.13
2023-03-07T12:25:26.795Z,97709.88
2023-03-07T12:30:44.500Z,97715.94
2023-03-07T12:35:53.507Z,97709.03
2023-03-07T12:41:03.271Z,97706.47
2023-03-07T12:46:16.760Z,97705.66
2023-03-07T12:51:26.717Z,97704.75
2023-03-07T12:56:39.164Z,97703.97
2023-03-07T13:01:49.116Z,97702.25
2023-03-07T13:06:55.225Z,97700.56
2023-03-07T13:12:33.002Z,97700.56
2023-03-07T13:18:02.917Z,97706.53
2023-03-07T13:23:25.217Z,97705.66
2023-03-07T13:28:53.122Z,97703.09
2023-03-07T13:34:18.393Z,97698.81
2023-03-07T13:39:37.074Z,97711.66
2023-03-07T13:44:42.323Z,97712.44
2023-03-07T13:49:47.529Z,97719.25
2023-03-07T13:54:52.569Z,97710.72
2023-03-07T13:59:57.628Z,97699.56
2023-03-07T14:05:04.725Z,97671.34
2023-03-07T14:10:22.402Z,97697.94
2023-03-07T14:15:33.673Z,97689.38
2023-03-07T14:20:57.269Z,97699.63
2023-03-07T14:26:10.805Z,97696.19
2023-03-07T14:31:25.371Z,97688.47
2023-03-07T14:36:32.404Z,97697.88
2023-03-07T14:41:46.372Z,97694.44
2023-03-07T14:47:01.807Z,97698.72
2023-03-07T14:52:07.362Z,97697.84
2023-03-07T14:57:20.744Z,97706.41
2023-03-07T15:02:24.148Z,97696.94
2023-03-07T15:07:28.895Z,97707.03
2023-03-07T15:12:32.366Z,97718.56
2023-03-07T15:17:43.919Z,97725.03
2023-03-07T15:22:49.447Z,97724.22
2023-03-07T15:28:00.921Z,97732.56
2023-03-07T15:33:06.716Z,97726.66
2023-03-07T15:38:17.265Z,97731.78
2023-03-07T15:43:29.200Z,97735.19
2023-03-07T15:48:43.455Z,97737.00
2023-03-07T15:53:57.626Z,97739.56
2023-03-07T15:59:04.591Z,97739.53
2023-03-07T16:04:08.075Z,97739.47
2023-03-07T16:09:14.636Z,97743.75
2023-03-07T16:14:25.450Z,97739.53
2023-03-07T16:19:29.449Z,97754.03
2023-03-07T16:24:34.461Z,97745.59
2023-03-07T16:29:38.033Z,97755.06
2023-03-07T16:34:43.363Z,97744.84
2023-03-07T16:39:49.104Z,97749.19
2023-03-07T16:44:53.132Z,97755.94
2023-03-07T16:49:56.720Z,97755.97
2023-03-07T16:55:01.498Z,97750.84
2023-03-07T17:00:08.516Z,97749.97
2023-03-07T17:05:17.896Z,97750.72
2023-03-07T17:10:23.617Z,97744.75
2023-03-07T17:15:31.344Z,97761.00
2023-03-07T17:20:35.065Z,97759.31
2023-03-07T17:25:40.095Z,97753.38
2023-03-07T17:30:45.822Z,97754.06
2023-03-07T17:35:49.457Z,97759.88
2023-03-07T17:40:56.705Z,97764.03
2023-03-07T17:46:00.198Z,97772.91
2023-03-07T17:51:04.162Z,97767.56
2023-03-07T17:56:09.881Z,97772.38
2023-03-07T18:01:15.408Z,97769.44
2023-03-07T18:06:20.429Z,97769.13
2023-03-07T18:11:25.390Z,97766.50
2023-03-07T18:16:28.861Z,97766.25
2023-03-07T18:21:32.297Z,97768.53
2023-03-07T18:26:37.096Z,97778.41
2023-03-07T18:31:40.736Z,97766.91
2023-03-07T18:36:44.876Z,97769.16
2023-03-07T18:41:50.736Z,97775.13
2023-03-07T18:46:54.156Z,97781.63
2023-03-07T18:51:57.692Z,97782.31
2023-03-07T18:57:02.457Z,97782.34
2023-03-07T19:02:05.812Z,97786.59
2023-03-07T19:07:09.418Z,97796.47
2023-03-07T19:12:14.260Z,97794.69
2023-03-07T19:17:17.344Z,97801.50
2023-03-07T19:22:26.412Z,97803.63
2023-03-07T19:27:32.262Z,97811.06
2023-03-07T19:32:35.784Z,97821.03
2023-03-07T19:37:39.350Z,97805.47
2023-03-07T19:42:44.218Z,97815.50
2023-03-07T19:47:47.797Z,97816.00
2023-03-07T19:52:51.308Z,97825.88
2023-03-07T19:57:56.111Z,97832.25
2023-03-07T20:03:00.337Z,97828.25
2023-03-07T20:08:03.836Z,97839.19
2023-03-07T20:13:09.575Z,97842.38
2023-03-07T20:18:13.852Z,97823.97
2023-03-07T20:23:17.268Z,97841.81
2023-03-07T20:28:22.728Z,97845.78
2023-03-07T20:33:26.669Z,97848.16
2023-03-07T20:38:30.023Z,97844.47
2023-03-07T20:43:35.240Z,97847.69
2023-03-07T20:48:39.170Z,97849.84
2023-03-07T20:53:42.638Z,97851.25
2023-03-07T20:58:47.738Z,97857.00
2023-03-07T21:03:52.676Z,97868.41
2023-03-07T21:08:56.394Z,97868.22
2023-03-07T21:14:01.603Z,97879.88
2023-03-07T21:19:07.028Z,97884.56
2023-03-07T21:24:12.560Z,97889.44
2023-03-07T21:29:17.543Z,97898.50
2023-03-07T21:34:21.099Z,97896.41
2023-03-07T21:39:25.719Z,97888.44
2023-03-07T21:44:30.325Z,97900.38
2023-03-07T21:49:34.297Z,97903.34
2023-03-07T21:54:37.822Z,97908.06
2023-03-07T21:59:42.713Z,97901.09
2023-03-07T22:04:46.144Z,97917.63
2023-03-07T22:09:49.533Z,97924.72
2023-03-07T22:14:54.496Z,97923.50
2023-03-07T22:19:57.991Z,97931.16
2023-03-07T22:25:01.507Z,97936.78
2023-03-07T22:30:10.304Z,97935.16
2023-03-07T22:35:13.729Z,97944.16
2023-03-07T22:40:17.393Z,97939.78
2023-03-07T22:45:22.422Z,97946.94
2023-03-07T22:50:26.253Z,97960.66
2023-03-07T22:55:29.721Z,97964.69
2023-03-07T23:00:34.448Z,97956.00
2023-03-07T23:05:38.438Z,97961.00
2023-03-07T23:10:41.792Z,97951.91
2023-03-07T23:15:46.881Z,97958.47
2023-03-07T23:20:50.251Z,97961.59
2023-03-07T23:25:53.729Z,97963.03
2023-03-07T23:30:58.615Z,97961.91
2023-03-07T23:36:02.388Z,97964.00
2023-03-07T23:41:06.023Z,97963.75
2023-03-07T23:46:12.439Z,97956.91
2023-03-07T23:51:16.116Z,97961.69
2023-03-07T23:56:19.572Z,97957.19
